Time;durP1;ratioP1;P1;durP2;ratioP2;P2;SDS_P1;SDS_P2;PMS_P1;PMS_P2;Temp;Humidity;BMP_temperature;BMP_pressure;BME280_temperature;BME280_humidity;BME280_pressure;Samples;Min_cycle;Max_cycle;Signal;HPM_P1;HPM_P2
2022/04/19 00:00:27;;;;;;;4.30;1.48;;;4.90;55.90;;;;;;5035729;28;20161;-51
2022/04/19 00:02:52;;;;;;;3.97;2.20;;;4.90;59.80;;;;;;5030137;28;20079;-51
2022/04/19 00:05:18;;;;;;;2.35;1.60;;;4.90;57.70;;;;;;5034081;28;20037;-53
2022/04/19 00:07:44;;;;;;;2.97;2.08;;;4.90;59.00;;;;;;5049079;28;20064;-51
2022/04/19 00:10:10;;;;;;;2.03;1.42;;;4.80;57.90;;;;;;5028364;28;20029;-49
2022/04/19 00:12:36;;;;;;;2.65;1.98;;;4.90;59.00;;;;;;5048549;28;20025;-50
2022/04/19 00:15:02;;;;;;;3.70;1.80;;;4.90;58.00;;;;;;5038702;28;20052;-53
2022/04/19 00:17:28;;;;;;;5.03;2.35;;;4.90;58.50;;;;;;5029941;28;20401;-54
2022/04/19 00:19:53;;;;;;;5.07;2.05;;;4.90;58.60;;;;;;5046578;28;20017;-50
2022/04/19 00:22:19;;;;;;;3.33;1.70;;;4.90;58.50;;;;;;5028524;28;20106;-50
2022/04/19 00:24:44;;;;;;;3.13;1.63;;;4.90;60.10;;;;;;5046487;28;20037;-53
2022/04/19 00:27:10;;;;;;;3.08;1.98;;;4.90;60.80;;;;;;5029865;28;20032;-53
2022/04/19 00:29:35;;;;;;;4.05;2.10;;;4.80;60.70;;;;;;5046478;28;20040;-50
2022/04/19 00:32:01;;;;;;;3.78;2.10;;;4.80;60.10;;;;;;5049054;28;20029;-52
2022/04/19 00:34:27;;;;;;;2.60;1.27;;;4.80;60.50;;;;;;5033481;28;20025;-51
2022/04/19 00:36:52;;;;;;;2.97;1.73;;;4.80;60.70;;;;;;5049011;28;20028;-54
2022/04/19 00:39:18;;;;;;;4.75;2.25;;;4.80;62.70;;;;;;5031965;28;20035;-56
2022/04/19 00:41:43;;;;;;;6.45;2.20;;;4.80;62.50;;;;;;5048888;28;20025;-52
2022/04/19 00:44:09;;;;;;;2.55;1.85;;;4.80;61.70;;;;;;5030947;28;20045;-50
2022/04/19 00:46:34;;;;;;;5.03;2.90;;;4.80;61.60;;;;;;5048812;28;20021;-54
2022/04/19 00:49:00;;;;;;;3.97;2.45;;;4.80;61.20;;;;;;5029313;28;20037;-52
2022/04/19 00:51:27;;;;;;;4.60;2.80;;;4.90;63.30;;;;;;5048615;28;20132;-53
2022/04/19 00:53:52;;;;;;;4.63;2.30;;;4.90;63.00;;;;;;5028100;28;20037;-60
2022/04/19 00:56:18;;;;;;;4.55;2.92;;;4.90;62.10;;;;;;5048412;28;20086;-60
2022/04/19 00:58:44;;;;;;;4.65;2.45;;;5.00;64.00;;;;;;5028970;28;20021;-60
2022/04/19 01:01:09;;;;;;;4.57;2.63;;;5.00;62.40;;;;;;5043133;28;20063;-61
2022/04/19 01:03:37;;;;;;;5.00;2.60;;;5.00;62.30;;;;;;5029134;28;20603;-60
2022/04/19 01:06:04;;;;;;;3.30;2.17;;;5.00;61.80;;;;;;5027668;28;20116;-60
2022/04/19 01:08:30;;;;;;;4.53;2.78;;;5.00;64.20;;;;;;5047843;28;20040;-61
2022/04/19 01:13:17;;;;;;;3.65;1.95;;;5.00;62.30;;;;;;5027047;28;20231;-62
2022/04/19 01:13:41;;;;;;;5.28;1.92;;;5.00;62.90;;;;;;5013447;28;20117;-61
2022/04/19 01:16:08;;;;;;;3.63;2.13;;;5.00;63.10;;;;;;5027132;28;20025;-59
2022/04/19 01:18:35;;;;;;;5.57;2.33;;;5.00;61.80;;;;;;5047807;28;20120;-60
2022/04/19 01:21:01;;;;;;;5.70;2.30;;;5.00;62.00;;;;;;5027009;28;20025;-60
2022/04/19 01:23:28;;;;;;;6.57;2.72;;;5.00;63.10;;;;;;5047449;28;20064;-60
2022/04/19 01:25:54;;;;;;;3.17;2.00;;;5.00;61.70;;;;;;5026724;28;20378;-60
2022/04/19 01:28:20;;;;;;;5.65;2.20;;;5.00;62.70;;;;;;5047456;28;20051;-60
2022/04/19 01:30:52;;;;;;;5.53;2.30;;;5.00;62.80;;;;;;5027148;28;20042;-60
2022/04/19 01:33:18;;;;;;;3.67;2.22;;;5.00;62.80;;;;;;5028047;28;20034;-60
2022/04/19 01:35:43;;;;;;;4.60;2.55;;;5.00;62.80;;;;;;5029413;28;20109;-60
2022/04/19 01:38:09;;;;;;;5.07;2.67;;;5.00;62.80;;;;;;5047377;28;20075;-60
2022/04/19 01:40:34;;;;;;;4.38;1.83;;;5.00;59.90;;;;;;5026880;28;20043;-60
2022/04/19 01:43:02;;;;;;;3.90;2.60;;;5.00;59.80;;;;;;5046986;28;20083;-60
2022/04/19 01:45:30;;;;;;;3.00;2.10;;;5.00;62.70;;;;;;5026688;28;20041;-60
2022/04/19 01:47:57;;;;;;;3.53;1.92;;;5.00;62.20;;;;;;5047453;28;20185;-60
2022/04/19 01:50:27;;;;;;;7.40;2.53;;;5.00;61.80;;;;;;5026472;28;20501;-60
2022/04/19 01:52:57;;;;;;;7.40;2.38;;;4.90;61.20;;;;;;5047774;28;20079;-60
2022/04/19 01:55:23;;;;;;;4.63;2.42;;;4.90;61.50;;;;;;5026350;28;20037;-60
2022/04/19 01:57:52;;;;;;;4.65;2.30;;;4.90;62.50;;;;;;5046468;28;20032;-60
2022/04/19 02:00:18;;;;;;;3.83;2.38;;;4.80;61.90;;;;;;5028817;28;20029;-60
2022/04/19 02:02:44;;;;;;;7.78;2.22;;;4.70;61.20;;;;;;5028613;28;20033;-60
2022/04/19 02:05:11;;;;;;;4.13;2.20;;;4.70;65.10;;;;;;5033818;28;20034;-60
2022/04/19 02:07:44;;;;;;;3.92;2.05;;;4.60;66.30;;;;;;5047246;28;20017;-60
2022/04/19 02:10:11;;;;;;;4.40;2.60;;;4.50;68.60;;;;;;5038512;28;20033;-60
2022/04/19 02:12:38;;;;;;;4.60;2.17;;;4.50;66.40;;;;;;5031805;28;20033;-60
2022/04/19 02:15:04;;;;;;;5.15;2.05;;;4.40;65.70;;;;;;5049398;28;20153;-60
2022/04/19 02:17:30;;;;;;;5.63;2.58;;;4.30;67.40;;;;;;5032273;28;20037;-60
2022/04/19 02:20:04;;;;;;;5.97;2.50;;;4.20;66.40;;;;;;5049031;28;20182;-60
2022/04/19 02:22:30;;;;;;;2.22;1.45;;;4.10;67.20;;;;;;5031733;28;20412;-60
2022/04/19 02:24:56;;;;;;;8.02;2.47;;;3.90;67.50;;;;;;5048642;28;20585;-60
2022/04/19 02:27:24;;;;;;;3.72;2.30;;;3.80;68.90;;;;;;5031802;28;20030;-59
2022/04/19 02:29:50;;;;;;;3.97;1.95;;;3.80;71.20;;;;;;5048969;28;20446;-60
2022/04/19 02:32:15;;;;;;;4.78;2.35;;;3.80;71.30;;;;;;5031718;28;20029;-59
2022/04/19 02:34:41;;;;;;;7.25;2.58;;;3.70;71.20;;;;;;5048826;28;20028;-59
2022/04/19 02:37:07;;;;;;;2.75;2.15;;;3.70;71.90;;;;;;5031900;28;20488;-59
2022/04/19 02:39:32;;;;;;;3.47;2.58;;;3.70;72.30;;;;;;5048853;28;20047;-58
2022/04/19 02:41:58;;;;;;;3.42;2.15;;;3.70;74.00;;;;;;5050910;28;20097;-59
2022/04/19 02:44:24;;;;;;;4.03;1.85;;;3.70;72.70;;;;;;5034841;28;20099;-59
2022/04/19 02:46:49;;;;;;;3.38;2.20;;;3.70;72.30;;;;;;5051164;28;20017;-59
2022/04/19 02:49:15;;;;;;;3.83;2.40;;;3.60;72.60;;;;;;5033550;28;20052;-59
2022/04/19 02:51:41;;;;;;;5.18;2.10;;;3.60;74.20;;;;;;5051017;28;20028;-59
2022/04/19 02:54:06;;;;;;;3.75;2.33;;;3.60;74.80;;;;;;5032768;28;20021;-59
2022/04/19 02:56:32;;;;;;;4.38;2.38;;;3.60;74.20;;;;;;5050895;28;20021;-59
2022/04/19 02:58:59;;;;;;;4.95;2.20;;;3.50;73.20;;;;;;5031016;28;20033;-59
2022/04/19 03:01:29;;;;;;;4.90;2.78;;;3.50;75.70;;;;;;5044259;28;20098;-59
2022/04/19 03:03:54;;;;;;;5.10;3.30;;;3.40;74.50;;;;;;5030002;28;20422;-59
2022/04/19 03:06:20;;;;;;;4.72;2.63;;;3.40;74.10;;;;;;5050610;28;20510;-60
2022/04/19 03:08:46;;;;;;;3.28;2.00;;;3.30;76.00;;;;;;5029416;28;20080;-59
2022/04/19 03:11:12;;;;;;;4.03;2.67;;;3.30;76.90;;;;;;5050859;28;20374;-65
2022/04/19 03:13:38;;;;;;;5.07;2.58;;;3.20;76.30;;;;;;5030689;28;20030;-64
2022/04/19 03:16:04;;;;;;;7.20;2.65;;;3.10;77.60;;;;;;5029296;28;20037;-64
2022/04/19 03:18:32;;;;;;;5.53;2.25;;;3.00;77.40;;;;;;5049989;28;20063;-65
2022/04/19 03:20:58;;;;;;;3.53;1.83;;;3.00;77.10;;;;;;5028615;28;20025;-64
2022/04/19 03:28:53;;;;;;;3.28;1.70;;;2.80;81.30;;;;;;5010953;28;20088;-66
2022/04/19 03:31:22;;;;;;;4.63;2.03;;;2.70;82.50;;;;;;5050163;28;20029;-66
2022/04/19 03:33:51;;;;;;;2.35;1.80;;;2.60;83.70;;;;;;5028873;28;20026;-65
2022/04/19 03:36:16;;;;;;;2.67;1.67;;;2.60;85.20;;;;;;5050022;28;20076;-66
2022/04/19 03:38:43;;;;;;;3.92;2.33;;;2.50;83.20;;;;;;5030653;28;20030;-65
2022/04/19 03:41:09;;;;;;;5.93;2.88;;;2.40;82.60;;;;;;5048131;28;20027;-66
2022/04/19 03:43:37;;;;;;;5.05;2.83;;;2.40;84.90;;;;;;5030536;28;20472;-65
2022/04/19 03:46:02;;;;;;;5.25;2.53;;;2.50;86.90;;;;;;5029047;28;20416;-66
2022/04/19 03:48:28;;;;;;;4.07;2.47;;;2.40;85.20;;;;;;5049497;28;20029;-66
2022/04/19 03:50:54;;;;;;;4.13;2.45;;;2.40;87.80;;;;;;5028629;28;20053;-66
2022/04/19 03:53:19;;;;;;;4.13;2.45;;;2.40;87.00;;;;;;5049145;28;20035;-66
2022/04/19 03:55:45;;;;;;;3.33;2.30;;;2.40;87.60;;;;;;5028703;28;20045;-65
2022/04/19 03:58:10;;;;;;;4.85;2.88;;;2.30;86.10;;;;;;5048986;28;20074;-65
2022/04/19 04:00:36;;;;;;;3.67;2.08;;;2.30;86.30;;;;;;5021807;28;20025;-65
2022/04/19 04:03:01;;;;;;;4.38;2.22;;;2.30;86.00;;;;;;5048763;28;20025;-65
2022/04/19 04:05:27;;;;;;;4.70;2.70;;;2.30;88.80;;;;;;5028484;28;20029;-65
2022/04/19 04:07:56;;;;;;;5.40;2.13;;;2.30;88.20;;;;;;5049129;28;20599;-66
2022/04/19 04:10:21;;;;;;;6.05;2.80;;;2.30;86.10;;;;;;5027957;28;20041;-66
2022/04/19 04:12:47;;;;;;;2.30;1.65;;;2.30;87.00;;;;;;5048708;28;20029;-66
2022/04/19 04:15:12;;;;;;;4.32;2.60;;;2.30;86.80;;;;;;5028369;28;20029;-66
2022/04/19 04:17:38;;;;;;;4.20;2.20;;;2.20;89.50;;;;;;5047637;28;20029;-65
2022/04/19 04:20:04;;;;;;;4.63;2.10;;;2.30;88.30;;;;;;5038839;28;20087;-66
2022/04/19 04:22:29;;;;;;;3.55;2.30;;;2.30;90.00;;;;;;5030078;28;20057;-66
2022/04/19 04:24:55;;;;;;;4.30;2.25;;;2.40;90.40;;;;;;5046603;28;20041;-66
2022/04/19 04:27:20;;;;;;;3.22;2.17;;;2.40;89.10;;;;;;5029612;28;20038;-66
2022/04/19 04:29:46;;;;;;;3.05;2.15;;;2.40;89.70;;;;;;5046535;28;20104;-66
2022/04/19 04:32:11;;;;;;;4.45;2.10;;;2.50;90.00;;;;;;5029829;28;20453;-66
2022/04/19 04:34:37;;;;;;;7.43;2.50;;;2.50;88.40;;;;;;5045742;28;20029;-65
2022/04/19 04:37:03;;;;;;;4.53;1.67;;;2.60;89.80;;;;;;5049139;28;20032;-66
2022/04/19 04:39:28;;;;;;;3.45;1.90;;;2.60;87.80;;;;;;5033821;28;20442;-66
2022/04/19 04:41:54;;;;;;;4.90;2.22;;;2.60;90.00;;;;;;5048904;28;20322;-66
2022/04/19 04:44:19;;;;;;;3.55;2.13;;;2.90;89.80;;;;;;5032235;28;20060;-65
2022/04/19 04:49:39;;;;;;;3.42;2.42;;;4.00;75.90;;;;;;5019093;28;20048;-65
2022/04/19 04:52:07;;;;;;;5.63;2.22;;;5.90;64.60;;;;;;5048998;28;20480;-65
2022/04/19 04:54:34;;;;;;;3.90;2.35;;;7.80;51.40;;;;;;5033491;28;20021;-65
2022/04/19 04:57:00;;;;;;;5.75;2.63;;;9.20;43.20;;;;;;5048482;28;20441;-66
2022/04/19 04:59:26;;;;;;;5.43;2.58;;;10.40;37.40;;;;;;5029077;28;20108;-65
2022/04/19 05:01:52;;;;;;;3.85;2.85;;;11.50;32.60;;;;;;5048675;28;20100;-65
2022/04/19 05:04:17;;;;;;;4.93;2.53;;;12.40;29.60;;;;;;5031340;28;20040;-65
2022/04/19 05:06:43;;;;;;;7.10;2.92;;;13.00;26.50;;;;;;5048541;28;20091;-66
2022/04/19 05:09:08;;;;;;;4.32;2.20;;;13.70;24.60;;;;;;5030553;28;20039;-65
2022/04/19 05:11:34;;;;;;;4.38;2.60;;;14.60;23.90;;;;;;5048529;28;20310;-65
2022/04/19 05:13:59;;;;;;;4.55;2.80;;;15.20;21.00;;;;;;5028919;28;20034;-65
2022/04/19 05:16:24;;;;;;;4.60;3.00;;;15.80;20.70;;;;;;5048458;28;20385;-65
2022/04/19 05:18:50;;;;;;;4.88;3.08;;;16.30;18.40;;;;;;5027619;28;20408;-65
2022/04/19 05:21:15;;;;;;;4.22;2.83;;;16.90;16.00;;;;;;5048622;28;20025;-65
2022/04/19 05:23:41;;;;;;;3.33;2.35;;;17.30;16.00;;;;;;5028922;28;20513;-65
2022/04/19 05:26:06;;;;;;;3.63;2.60;;;17.80;15.80;;;;;;5046074;28;20025;-65
2022/04/19 05:28:32;;;;;;;6.60;2.97;;;18.30;14.90;;;;;;5028729;28;20033;-65
2022/04/19 05:30:57;;;;;;;3.83;2.30;;;18.70;13.10;;;;;;5027275;28;20025;-65
2022/04/19 05:33:23;;;;;;;2.90;2.25;;;18.80;12.70;;;;;;5047366;28;20484;-65
2022/04/19 05:35:49;;;;;;;5.20;2.58;;;19.60;12.50;;;;;;5027194;28;20029;-65
2022/04/19 05:38:14;;;;;;;4.07;2.65;;;19.50;10.70;;;;;;5047508;28;20104;-66
2022/04/19 05:40:40;;;;;;;8.68;3.00;;;20.20;10.40;;;;;;5026700;28;20037;-65
2022/04/19 05:43:06;;;;;;;4.53;2.60;;;20.10;8.80;;;;;;5047278;28;20032;-65
2022/04/19 05:45:32;;;;;;;5.97;2.95;;;20.40;7.10;;;;;;5028313;28;20086;-63
2022/04/19 05:47:57;;;;;;;4.35;2.67;;;21.00;6.30;;;;;;5051279;28;20031;-63
2022/04/19 05:50:23;;;;;;;4.28;2.38;;;21.40;6.90;;;;;;5030745;28;20051;-63
2022/04/19 05:52:49;;;;;;;4.97;2.95;;;21.30;6.00;;;;;;5051451;28;20463;-63
2022/04/19 05:55:14;;;;;;;3.70;2.88;;;21.80;4.00;;;;;;5030817;28;20530;-64
2022/04/19 05:57:40;;;;;;;5.22;3.10;;;22.20;6.20;;;;;;5051067;28;20021;-63
2022/04/19 06:00:06;;;;;;;4.55;2.78;;;22.30;5.00;;;;;;5035046;28;20106;-63
2022/04/19 06:05:15;;;;;;;4.65;2.67;;;22.80;2.90;;;;;;5034753;28;20075;-64
2022/04/19 06:07:48;;;;;;;4.40;2.90;;;23.50;4.20;;;;;;5032341;28;20554;-63
2022/04/19 06:10:14;;;;;;;4.43;3.13;;;23.30;2.20;;;;;;5037545;28;20583;-64
2022/04/19 06:12:40;;;;;;;4.55;2.60;;;24.00;2.80;;;;;;5051031;28;20032;-63
2022/04/19 06:15:07;;;;;;;5.55;3.38;;;23.90;2.30;;;;;;5030442;28;20492;-64
2022/04/19 06:17:35;;;;;;;5.07;3.15;;;23.40;2.00;;;;;;5051032;28;20033;-64
2022/04/19 06:20:02;;;;;;;4.43;2.80;;;24.40;2.00;;;;;;5040114;28;20112;-64
2022/04/19 06:22:27;;;;;;;6.07;3.30;;;24.90;1.00;;;;;;5031819;28;20033;-64
2022/04/19 06:24:55;;;;;;;5.30;2.83;;;25.20;1.10;;;;;;5048844;28;20033;-64
2022/04/19 06:27:21;;;;;;;4.65;2.60;;;25.80;1.00;;;;;;5031607;28;20018;-64
2022/04/19 06:29:46;;;;;;;5.35;2.97;;;26.20;1.00;;;;;;5048849;28;20082;-63
2022/04/19 06:32:13;;;;;;;3.38;2.40;;;26.90;1.00;;;;;;5032030;28;20544;-64
2022/04/19 06:34:39;;;;;;;3.53;2.20;;;27.70;1.00;;;;;;5048560;28;20100;-64
2022/04/19 06:37:05;;;;;;;4.35;2.70;;;28.20;1.00;;;;;;5051389;28;20111;-65
2022/04/19 06:39:30;;;;;;;4.97;2.80;;;28.10;1.00;;;;;;5035958;28;20086;-64
2022/04/19 06:41:56;;;;;;;5.13;3.13;;;28.10;1.00;;;;;;5050888;28;20029;-64
2022/04/19 06:44:21;;;;;;;5.05;3.10;;;28.30;1.00;;;;;;5034616;28;20047;-66
2022/04/19 06:46:49;;;;;;;5.43;2.97;;;28.60;1.00;;;;;;5051111;28;20051;-64
2022/04/19 06:49:15;;;;;;;3.42;2.90;;;28.80;1.00;;;;;;5033249;28;20288;-64
2022/04/19 06:51:41;;;;;;;4.03;2.65;;;29.10;1.00;;;;;;5051190;28;20115;-64
2022/04/19 06:54:07;;;;;;;5.47;2.80;;;29.30;1.00;;;;;;5032706;28;20044;-58
2022/04/19 06:56:33;;;;;;;3.30;2.95;;;29.50;1.00;;;;;;5050520;28;20033;-57
2022/04/19 06:58:59;;;;;;;4.07;2.72;;;29.30;1.00;;;;;;5031110;28;20040;-57
2022/04/19 07:01:26;;;;;;;4.60;2.75;;;29.40;1.00;;;;;;5047271;28;20104;-59
2022/04/19 07:03:52;;;;;;;3.08;2.65;;;29.30;1.00;;;;;;5030140;28;20087;-59
2022/04/19 07:06:18;;;;;;;3.17;2.40;;;28.30;1.00;;;;;;5050579;28;20025;-59
2022/04/19 07:08:43;;;;;;;3.70;2.35;;;27.50;1.00;;;;;;5031230;28;20030;-59
2022/04/19 07:11:11;;;;;;;3.22;2.15;;;25.80;1.00;;;;;;5048699;28;20025;-64
2022/04/19 07:13:37;;;;;;;2.50;2.10;;;25.10;1.00;;;;;;5030705;28;20489;-64
2022/04/19 07:16:02;;;;;;;3.50;2.25;;;25.10;1.00;;;;;;5029478;28;20025;-65
2022/04/19 07:18:28;;;;;;;3.30;2.20;;;24.50;1.00;;;;;;5049827;28;20032;-64
2022/04/19 07:29:13;;;;;;;2.47;2.10;;;25.80;1.00;;;;;;5014757;28;20094;-64
2022/04/19 07:31:40;;;;;;;2.85;1.85;;;26.00;1.00;;;;;;5050058;28;20252;-63
2022/04/19 07:34:06;;;;;;;1.60;1.50;;;25.90;1.00;;;;;;5031662;28;20033;-64
2022/04/19 07:36:39;;;;;;;3.67;1.70;;;25.30;1.00;;;;;;5050226;28;20025;-63
2022/04/19 07:39:05;;;;;;;2.75;1.70;;;26.00;1.00;;;;;;5013364;28;20444;-64
2022/04/19 07:41:31;;;;;;;3.65;1.52;;;26.80;1.00;;;;;;5050335;28;20021;-64
2022/04/19 07:43:57;;;;;;;2.47;1.95;;;27.80;1.00;;;;;;5029761;28;20044;-63
2022/04/19 07:46:22;;;;;;;2.38;2.17;;;28.00;1.00;;;;;;5050191;28;20043;-65
2022/04/19 07:48:51;;;;;;;1.67;1.48;;;28.40;1.00;;;;;;5029242;28;20465;-64
2022/04/19 07:51:16;;;;;;;1.80;1.40;;;28.50;1.00;;;;;;5049568;28;20099;-64
2022/04/19 07:53:42;;;;;;;2.88;1.60;;;28.20;1.00;;;;;;5030864;28;20115;-64
2022/04/19 07:56:08;;;;;;;2.22;1.83;;;28.70;1.00;;;;;;5047781;28;20029;-64
2022/04/19 07:58:33;;;;;;;2.80;1.70;;;28.90;1.00;;;;;;5030321;28;20040;-63
2022/04/19 08:01:00;;;;;;;3.58;1.75;;;29.10;1.00;;;;;;5021489;28;20056;-64
2022/04/19 08:03:25;;;;;;;2.17;1.75;;;29.60;1.00;;;;;;5049190;28;20025;-64
2022/04/19 08:05:51;;;;;;;1.50;1.40;;;29.80;1.00;;;;;;5028550;28;20405;-64
2022/04/19 08:08:18;;;;;;;1.60;1.50;;;29.90;1.00;;;;;;5047873;28;20025;-64
2022/04/19 08:10:47;;;;;;;2.03;1.50;;;29.70;1.00;;;;;;5028656;28;20030;-64
2022/04/19 08:13:12;;;;;;;2.35;1.48;;;29.10;1.00;;;;;;5049330;28;20029;-64
2022/04/19 08:15:38;;;;;;;2.10;1.42;;;28.60;1.00;;;;;;5027934;28;20044;-64
2022/04/19 08:18:04;;;;;;;3.15;2.15;;;29.00;1.00;;;;;;5048958;28;20029;-65
2022/04/19 08:20:29;;;;;;;2.25;1.80;;;29.10;1.00;;;;;;5028208;28;20079;-65
2022/04/19 08:22:55;;;;;;;3.28;1.70;;;29.20;1.00;;;;;;5048506;28;20272;-64
2022/04/19 08:25:21;;;;;;;2.45;1.85;;;28.90;1.00;;;;;;5028011;28;20484;-64
2022/04/19 08:27:46;;;;;;;2.67;1.85;;;28.60;1.00;;;;;;5048711;28;20017;-65
2022/04/19 08:30:16;;;;;;;3.67;1.75;;;28.00;1.00;;;;;;5028082;28;20079;-64
2022/04/19 08:32:44;;;;;;;2.13;1.92;;;27.30;1.00;;;;;;5048504;28;20515;-64
2022/04/19 08:35:09;;;;;;;2.75;2.22;;;27.10;1.00;;;;;;5027692;28;20029;-65
2022/04/19 08:37:35;;;;;;;4.10;2.15;;;27.50;1.00;;;;;;5048115;28;20112;-65
2022/04/19 08:40:03;;;;;;;3.28;1.95;;;27.90;1.00;;;;;;5037837;28;20392;-65
2022/04/19 08:42:29;;;;;;;2.20;1.73;;;27.70;1.00;;;;;;5029219;28;20412;-66
2022/04/19 08:44:56;;;;;;;1.80;1.70;;;27.90;1.00;;;;;;5046254;28;20322;-65
2022/04/19 08:47:23;;;;;;;3.25;1.95;;;28.20;1.00;;;;;;5029290;28;20084;-65
2022/04/19 08:49:49;;;;;;;3.30;1.63;;;28.10;1.00;;;;;;5046447;28;20096;-65
2022/04/19 08:52:16;;;;;;;4.93;1.70;;;27.70;1.00;;;;;;5029196;28;20060;-65
2022/04/19 08:57:32;;;;;;;2.05;1.30;;;28.30;1.00;;;;;;5009382;28;20397;-64
2022/04/19 09:00:02;;;;;;;3.63;1.38;;;28.30;1.00;;;;;;5023053;28;20025;-64
2022/04/19 09:02:30;;;;;;;3.10;1.75;;;28.60;1.00;;;;;;5029064;28;20017;-65
2022/04/19 09:05:17;;;;;;;2.58;1.52;;;28.50;1.00;;;;;;5045954;28;20040;-64
2022/04/19 09:07:44;;;;;;;2.97;1.58;;;27.90;1.00;;;;;;5028714;28;20501;-64
2022/04/19 09:10:14;;;;;;;3.45;1.80;;;27.00;1.00;;;;;;5034713;28;20025;-64
2022/04/19 09:13:04;;;;;;;1.90;1.52;;;26.80;1.00;;;;;;5028408;28;20091;-64
2022/04/19 09:15:44;;;;;;;1.58;1.27;;;27.60;1.00;;;;;;5021243;28;20083;-65
2022/04/19 09:18:29;;;;;;;1.58;1.48;;;27.80;1.00;;;;;;5008879;28;20038;-66
2022/04/19 09:21:05;;;;;;;2.03;1.73;;;26.80;1.00;;;;;;5026822;28;20505;-65
2022/04/19 09:23:32;;;;;;;3.13;1.50;;;25.00;1.00;;;;;;5028441;28;20033;-65
2022/04/19 09:26:01;;;;;;;2.40;1.70;;;23.60;1.00;;;;;;5024587;28;20029;-65
2022/04/19 09:28:27;;;;;;;4.45;1.70;;;22.10;1.00;;;;;;5048102;28;20028;-65
2022/04/19 09:30:58;;;;;;;3.47;1.70;;;21.20;1.00;;;;;;5026959;28;20395;-65
2022/04/19 09:33:25;;;;;;;2.70;2.10;;;21.20;1.00;;;;;;5028386;28;20143;-65
2022/04/19 09:35:58;;;;;;;2.08;1.42;;;22.50;1.00;;;;;;5028720;28;20568;-67
2022/04/19 09:38:39;;;;;;;1.40;1.30;;;23.00;1.00;;;;;;5048006;28;20029;-65
2022/04/19 09:41:13;;;;;;;2.97;1.52;;;24.40;1.00;;;;;;5026582;28;20025;-65
2022/04/19 09:43:39;;;;;;;2.10;1.83;;;26.30;1.00;;;;;;5027905;28;20049;-65
2022/04/19 09:46:05;;;;;;;3.50;1.90;;;27.10;1.00;;;;;;5026624;28;20029;-65
2022/04/19 09:48:33;;;;;;;3.08;1.85;;;26.80;1.00;;;;;;5047537;28;20029;-65
2022/04/19 09:51:04;;;;;;;3.65;1.83;;;27.60;1.00;;;;;;5026217;28;20099;-65
2022/04/19 09:53:43;;;;;;;3.38;2.00;;;28.20;1.00;;;;;;5048098;28;20052;-65
2022/04/19 09:56:13;;;;;;;3.08;1.63;;;27.00;1.00;;;;;;5026625;28;20431;-65
2022/04/19 09:58:40;;;;;;;2.25;1.55;;;25.10;1.00;;;;;;5047443;28;20025;-65
2022/04/19 10:01:07;;;;;;;2.67;1.65;;;23.10;1.00;;;;;;5019671;28;20033;-65
2022/04/19 10:09:04;;;;;;;4.55;1.40;;;20.00;1.00;;;;;;5011404;28;20049;-64
2022/04/19 10:11:31;;;;;;;1.52;1.35;;;18.70;1.00;;;;;;5046681;28;20116;-65
2022/04/19 10:13:57;;;;;;;2.22;1.40;;;17.90;1.00;;;;;;5027539;28;20099;-64
2022/04/19 10:16:23;;;;;;;3.00;1.65;;;17.50;1.50;;;;;;5047883;28;20014;-64
2022/04/19 10:18:49;;;;;;;2.75;1.67;;;16.90;2.60;;;;;;5026904;28;20037;-64
2022/04/19 10:21:18;;;;;;;2.10;1.48;;;16.50;3.30;;;;;;5047754;28;20104;-64
2022/04/19 10:23:45;;;;;;;2.88;1.58;;;16.20;3.40;;;;;;5027810;28;20044;-64
2022/04/19 10:26:16;;;;;;;2.72;1.30;;;16.20;4.40;;;;;;5045810;28;20029;-64
2022/04/19 10:28:42;;;;;;;2.78;1.60;;;16.10;3.70;;;;;;5027820;28;20033;-64
2022/04/19 10:31:09;;;;;;;2.20;1.50;;;16.00;5.00;;;;;;5046257;28;20032;-64
2022/04/19 10:33:52;;;;;;;2.47;1.50;;;15.60;5.20;;;;;;5031567;28;20021;-64
2022/04/19 10:36:20;;;;;;;4.18;1.38;;;15.40;6.20;;;;;;5031243;28;20029;-64
2022/04/19 10:39:15;;;;;;;4.55;1.73;;;15.10;6.70;;;;;;5049154;28;20043;-59
2022/04/19 10:41:57;;;;;;;2.72;1.63;;;15.10;7.70;;;;;;5044582;28;20099;-64
2022/04/19 10:44:41;;;;;;;3.88;1.73;;;15.00;8.30;;;;;;5034415;28;20099;-64
2022/04/19 10:47:16;;;;;;;6.35;1.52;;;15.10;7.90;;;;;;5051309;28;20032;-64
2022/04/19 10:49:59;;;;;;;3.33;1.73;;;15.00;8.00;;;;;;5036777;28;20566;-64
2022/04/19 10:52:37;;;;;;;6.13;1.98;;;14.70;8.50;;;;;;5031238;28;20448;-64
2022/04/19 10:55:21;;;;;;;5.68;1.85;;;14.90;7.80;;;;;;5048464;28;20017;-64
2022/04/19 11:00:40;;;;;;;3.95;1.17;;;14.90;7.60;;;;;;5037752;28;20032;-63
2022/04/19 11:03:11;;;;;;;3.20;1.60;;;14.70;8.10;;;;;;5031050;28;20104;-64
2022/04/19 11:05:41;;;;;;;3.10;1.80;;;14.60;8.60;;;;;;5033273;28;20114;-64
2022/04/19 11:08:25;;;;;;;2.85;1.55;;;14.40;8.60;;;;;;5050866;28;20029;-64
2022/04/19 11:10:56;;;;;;;4.45;2.22;;;14.30;9.30;;;;;;5029506;28;20037;-60
2022/04/19 11:13:29;;;;;;;3.15;1.80;;;14.20;9.70;;;;;;5049979;28;20036;-60
2022/04/19 11:16:04;;;;;;;4.00;1.95;;;14.00;10.00;;;;;;5029047;28;20020;-60
2022/04/19 11:18:30;;;;;;;3.88;1.67;;;14.00;10.20;;;;;;5049918;28;20319;-59
2022/04/19 11:20:58;;;;;;;2.17;1.60;;;14.00;10.00;;;;;;5029003;28;20033;-59
2022/04/19 11:23:25;;;;;;;2.95;1.50;;;14.10;9.80;;;;;;5050199;28;20407;-59
2022/04/19 11:25:53;;;;;;;1.95;1.50;;;14.10;10.20;;;;;;5028986;28;20033;-59
2022/04/19 11:28:25;;;;;;;4.28;1.80;;;14.10;10.30;;;;;;5049766;28;20028;-60
2022/04/19 11:30:57;;;;;;;3.05;1.50;;;13.90;11.80;;;;;;5028700;28;20029;-59
2022/04/19 11:33:24;;;;;;;4.97;2.20;;;13.90;11.70;;;;;;5049543;28;20029;-59
2022/04/19 11:36:02;;;;;;;2.65;1.85;;;14.00;10.90;;;;;;5029268;28;20025;-59
2022/04/19 11:38:29;;;;;;;2.65;1.75;;;14.10;11.40;;;;;;5010701;28;20105;-59
2022/04/19 11:46:45;;;;;;;2.83;1.40;;;13.70;12.00;;;;;;5050163;28;20091;-59
2022/04/19 11:49:25;;;;;;;2.78;1.75;;;13.70;12.00;;;;;;5015152;28;20021;-59
2022/04/19 11:51:52;;;;;;;3.72;1.35;;;13.80;12.80;;;;;;5050249;28;20021;-59
2022/04/19 11:54:19;;;;;;;4.85;1.67;;;14.00;12.40;;;;;;5032856;28;20043;-59
2022/04/19 11:56:45;;;;;;;2.35;1.25;;;14.20;12.30;;;;;;5049914;28;20579;-59
2022/04/19 11:59:10;;;;;;;4.43;1.23;;;14.60;11.00;;;;;;5031746;28;20233;-58
2022/04/19 12:01:36;;;;;;;2.03;1.27;;;14.60;10.20;;;;;;5045999;28;20029;-59
2022/04/19 12:04:11;;;;;;;2.60;1.77;;;14.50;10.10;;;;;;5030519;28;20045;-60
2022/04/19 12:06:36;;;;;;;2.95;1.30;;;14.60;10.10;;;;;;5049453;28;20385;-60
2022/04/19 12:09:02;;;;;;;3.13;1.38;;;14.80;9.70;;;;;;5030561;28;20025;-59
2022/04/19 12:11:29;;;;;;;4.43;1.98;;;14.70;9.50;;;;;;5049720;28;20032;-59
2022/04/19 12:13:56;;;;;;;5.20;1.95;;;14.60;9.70;;;;;;5029163;28;20493;-59
2022/04/19 12:16:39;;;;;;;2.63;1.40;;;14.30;9.80;;;;;;5049566;28;20021;-59
2022/04/19 12:19:07;;;;;;;4.05;1.80;;;14.00;10.70;;;;;;5030402;28;20029;-59
2022/04/19 12:21:43;;;;;;;4.10;2.10;;;13.90;10.60;;;;;;5049702;28;20028;-59
2022/04/19 12:24:31;;;;;;;2.90;1.67;;;14.00;10.90;;;;;;5030858;28;20396;-59
2022/04/19 12:27:06;;;;;;;2.92;1.63;;;14.00;11.60;;;;;;5049009;28;20086;-59
2022/04/19 12:29:33;;;;;;;1.73;1.30;;;14.40;12.00;;;;;;5033796;28;20500;-59
2022/04/19 12:32:00;;;;;;;2.80;1.50;;;14.40;10.90;;;;;;5048872;28;20025;-59
2022/04/19 12:34:37;;;;;;;1.65;1.30;;;14.40;10.00;;;;;;5033097;28;20044;-60
2022/04/19 12:37:06;;;;;;;1.85;1.40;;;14.40;10.30;;;;;;5049112;28;20036;-59
2022/04/19 12:39:32;;;;;;;2.28;1.50;;;14.20;10.40;;;;;;5033874;28;20358;-59
2022/04/19 12:42:07;;;;;;;1.70;1.38;;;14.10;11.00;;;;;;5048747;28;20029;-61
2022/04/19 12:44:35;;;;;;;4.60;1.90;;;14.10;11.90;;;;;;5033413;28;20550;-60
2022/04/19 12:47:03;;;;;;;6.28;1.67;;;13.80;11.30;;;;;;5049109;28;20024;-60
2022/04/19 12:49:30;;;;;;;4.28;1.58;;;13.80;11.90;;;;;;5033065;28;20044;-60
2022/04/19 12:52:04;;;;;;;1.40;1.00;;;13.60;12.10;;;;;;5048541;28;20060;-60
2022/04/19 12:54:33;;;;;;;2.78;1.42;;;13.60;13.00;;;;;;5032766;28;20025;-63
2022/04/19 12:57:04;;;;;;;3.40;1.40;;;13.50;13.70;;;;;;5048576;28;20116;-63
2022/04/19 12:59:31;;;;;;;1.92;1.20;;;13.70;13.10;;;;;;5025701;28;20021;-62
2022/04/19 13:01:57;;;;;;;1.38;1.17;;;14.00;12.60;;;;;;5048708;28;20443;-63
2022/04/19 13:04:22;;;;;;;3.13;1.23;;;14.00;11.70;;;;;;5032333;28;20029;-63
2022/04/19 13:12:17;;;;;;;3.42;1.65;;;13.70;13.00;;;;;;5048337;28;20388;-63
2022/04/19 13:14:42;;;;;;;2.22;1.05;;;13.60;13.50;;;;;;5034794;28;20017;-63
2022/04/19 13:17:09;;;;;;;3.13;1.50;;;13.60;13.50;;;;;;5029073;28;20029;-63
2022/04/19 13:19:35;;;;;;;1.98;1.30;;;13.50;13.20;;;;;;5045865;28;20206;-62
2022/04/19 13:22:01;;;;;;;1.65;1.40;;;13.40;13.60;;;;;;5048139;28;20095;-63
2022/04/19 13:24:27;;;;;;;2.42;1.13;;;13.30;14.40;;;;;;5032565;28;20079;-63
2022/04/19 13:26:53;;;;;;;1.65;1.15;;;13.30;14.60;;;;;;5048363;28;20025;-63
2022/04/19 13:29:18;;;;;;;2.90;1.60;;;13.30;14.30;;;;;;5031336;28;20476;-63
2022/04/19 13:31:44;;;;;;;1.85;1.27;;;13.40;14.00;;;;;;5048298;28;20059;-62
2022/04/19 13:34:09;;;;;;;1.75;1.30;;;13.70;13.00;;;;;;5030269;28;20029;-63
2022/04/19 13:36:35;;;;;;;1.27;0.88;;;13.80;12.60;;;;;;5048068;28;20094;-62
2022/04/19 13:39:00;;;;;;;4.57;1.60;;;13.90;12.60;;;;;;5028958;28;20092;-63